Overview Statistics Trail Chart Weather Telemetry Raw packets
 

This is the latest recevied weather packets stored in our database for station/object N0QV. If no packets are shown the sender has not sent any weather packets the latest 10 day(s).

<< 77 78 79 80 81 82 83 >>
Time Temp. Humidity Pressure Rain* Wind** Luminosity Snow
1788116721 30.56° C 66% 1007.9 hPa 0 mm - 600 W/m² -
1788116416 31.11° C 66% 1008.1 hPa 0 mm - 245 W/m² -
1788116110 31.11° C 65% 1008 hPa 0 mm - 268 W/m² -
1788115806 30.56° C 66% 1008 hPa 0 mm - 317 W/m² -
1788115505 30.56° C 65% 1008 hPa 0 mm - 178 W/m² -
1788115200 30.56° C 65% 1008.1 hPa 0 mm - 291 W/m² -
1788114900 30.56° C 64% 1008.4 hPa 0 mm - 224 W/m² -
1788114595 30° C 64% 1008.1 hPa 0 mm - 184 W/m² -
1788114291 30.56° C 65% 1008.4 hPa 0 mm - 417 W/m² -
1788113987 30.56° C 63% 1008.1 hPa 0 mm - 275 W/m² -
1788113683 30° C 67% 1008.3 hPa 0 mm - 276 W/m² -
1788113382 30° C 66% 1008.2 hPa 0 mm - 308 W/m² -
1788113082 30.56° C 63% 1008 hPa 0 mm - 350 W/m² -
1788112781 29.44° C 67% 1007.9 hPa 0 mm - 552 W/m² -
1788112475 29.44° C 66% 1008 hPa 0 mm - 357 W/m² -
1788112170 30° C 65% 1008.2 hPa 0 mm - 488 W/m² -
1788111866 30° C 64% 1008.2 hPa 0 mm - 350 W/m² -
1788111561 30° C 64% 1008.3 hPa 0 mm - 592 W/m² -
1788111257 30° C 67% 1008.4 hPa 0 mm - 499 W/m² -
1788110952 30° C 65% 1008.5 hPa 0 mm - 268 W/m² -
1788110649 29.44° C 68% 1008.4 hPa 0 mm - 360 W/m² -
1788110344 29.44° C 66% 1008.2 hPa 0 mm - 281 W/m² -
1788110039 29.44° C 69% 1008.7 hPa 0 mm - 214 W/m² -
1788109734 29.44° C 69% 1008.7 hPa 0 mm - 486 W/m² -
1788109434 29.44° C 70% 1008.6 hPa 0 mm - 593 W/m² -

* Rain latest hour (hover to see other rain measurements)
** Current wind speed in m/s (hover to see current wind gust speed)